National Weather Service Raw Text Product

Displaying AFOS PIL: TAFFOD Received: 2018-03-08 17:38 UTC


051 
FTUS43 KDMX 081738
TAFFOD
TAF
KFOD 081738Z 0818/0918 31007KT P6SM SKC
     FM090100 VRB03KT P6SM SCT250
     FM090600 07004KT P6SM BKN100
     FM091500 10007KT P6SM BKN050=